Time;durP1;ratioP1;P1;durP2;ratioP2;P2;SDS_P1;SDS_P2;PMS_P1;PMS_P2;Temp;Humidity;BMP_temperature;BMP_pressure;BME280_temperature;BME280_humidity;BME280_pressure;Samples;Min_cycle;Max_cycle;Signal;HPM_P1;HPM_P2
2022/03/07 00:02:11;;;;;;;12.43;8.43;;;0.00;99.90;;;;;;4982022;28;20096;-84
2022/03/07 00:04:37;;;;;;;12.88;7.97;;;-0.10;99.90;;;;;;4998193;28;20042;-84
2022/03/07 00:07:03;;;;;;;13.77;7.72;;;-0.10;99.90;;;;;;4997773;28;20754;-84
2022/03/07 00:09:29;;;;;;;15.90;8.80;;;-0.10;99.90;;;;;;4998372;28;20038;-84
2022/03/07 00:11:55;;;;;;;10.93;7.80;;;0.00;99.90;;;;;;4981298;28;20041;-84
2022/03/07 00:14:21;;;;;;;11.75;7.80;;;0.00;99.90;;;;;;4982083;28;20038;-84
2022/03/07 00:16:46;;;;;;;12.70;7.72;;;0.00;99.90;;;;;;5014325;28;20041;-84
2022/03/07 00:19:12;;;;;;;11.18;7.30;;;-0.10;99.90;;;;;;4998339;28;20045;-84
2022/03/07 00:21:39;;;;;;;10.77;7.22;;;0.00;99.90;;;;;;4997344;28;20608;-84
2022/03/07 00:24:06;;;;;;;11.52;7.63;;;0.00;99.90;;;;;;4982144;28;20038;-84
2022/03/07 00:26:32;;;;;;;11.27;7.60;;;0.00;99.90;;;;;;4997730;28;20042;-84
2022/03/07 00:28:58;;;;;;;12.13;8.65;;;0.00;99.90;;;;;;4997877;28;20131;-84
2022/03/07 00:31:24;;;;;;;13.55;8.25;;;0.70;99.90;;;;;;4997693;28;20085;-84
2022/03/07 00:33:50;;;;;;;12.00;7.65;;;-0.10;99.90;;;;;;4981825;28;20073;-84
2022/03/07 00:36:18;;;;;;;10.60;7.30;;;-0.20;99.90;;;;;;4984703;28;20049;-84
2022/03/07 00:38:43;;;;;;;11.30;7.25;;;-0.20;99.90;;;;;;5010362;28;20046;-84
2022/03/07 00:41:10;;;;;;;11.25;7.22;;;0.90;99.90;;;;;;4977814;28;20508;-84
2022/03/07 00:43:36;;;;;;;11.68;7.03;;;-0.20;99.90;;;;;;4978148;28;20053;-84
2022/03/07 00:46:02;;;;;;;11.57;7.40;;;-0.20;99.90;;;;;;4962078;28;20038;-84
2022/03/07 00:48:28;;;;;;;14.30;8.88;;;0.10;99.90;;;;;;4993987;28;20039;-84
2022/03/07 00:50:54;;;;;;;13.27;9.07;;;-0.20;99.90;;;;;;4945824;28;20037;-84
2022/03/07 00:53:22;;;;;;;12.43;8.73;;;-0.30;99.90;;;;;;4961017;28;20121;-84
2022/03/07 00:55:49;;;;;;;13.70;8.50;;;-0.30;99.90;;;;;;4961929;28;20050;-84
2022/03/07 00:58:15;;;;;;;13.43;9.25;;;-0.40;99.90;;;;;;4993950;28;20038;-84
2022/03/07 01:00:42;;;;;;;14.73;8.80;;;-0.40;99.90;;;;;;4993974;28;20406;-84
2022/03/07 01:03:09;;;;;;;12.07;7.65;;;-0.50;99.90;;;;;;4993856;28;20049;-84
2022/03/07 01:05:35;;;;;;;11.32;7.40;;;-0.50;99.90;;;;;;4945828;28;20041;-84
2022/03/07 01:08:02;;;;;;;11.35;7.68;;;-0.50;99.90;;;;;;4993040;28;20046;-84
2022/03/07 01:10:27;;;;;;;13.68;9.05;;;0.50;99.90;;;;;;4993920;28;20136;-84
2022/03/07 01:12:53;;;;;;;12.80;8.07;;;-0.50;99.90;;;;;;4961372;28;20085;-84
2022/03/07 01:15:19;;;;;;;13.10;8.63;;;-0.50;99.90;;;;;;4994066;28;20081;-84
2022/03/07 01:17:45;;;;;;;12.82;8.80;;;-0.50;99.90;;;;;;4977766;28;20046;-84
2022/03/07 01:20:11;;;;;;;13.70;9.38;;;-0.60;99.90;;;;;;4977362;28;20116;-84
2022/03/07 01:22:38;;;;;;;13.15;9.32;;;-0.60;99.90;;;;;;4944494;28;20049;-84
2022/03/07 01:25:05;;;;;;;14.30;9.75;;;-0.60;99.90;;;;;;4998910;28;20050;-84
2022/03/07 01:27:32;;;;;;;15.20;9.88;;;-0.80;99.90;;;;;;4993603;28;20117;-84
2022/03/07 01:29:58;;;;;;;15.20;9.50;;;-0.90;99.90;;;;;;5010028;28;20078;-84
2022/03/07 01:32:27;;;;;;;14.43;9.70;;;-1.00;99.90;;;;;;4977600;28;20158;-84
2022/03/07 01:34:52;;;;;;;14.73;10.13;;;-1.00;99.90;;;;;;4993407;28;20121;-84
2022/03/07 01:37:18;;;;;;;14.77;9.70;;;-0.80;99.90;;;;;;4960314;28;20537;-84
2022/03/07 01:39:44;;;;;;;14.57;9.55;;;-1.00;99.90;;;;;;4977483;28;20035;-84
2022/03/07 01:42:10;;;;;;;16.92;9.40;;;-1.20;99.90;;;;;;4944901;28;20050;-84
2022/03/07 01:44:36;;;;;;;16.20;10.15;;;-1.30;99.90;;;;;;4961310;28;20042;-84
2022/03/07 01:47:03;;;;;;;15.02;10.15;;;-0.70;99.90;;;;;;4976785;28;20445;-84
2022/03/07 01:49:29;;;;;;;16.80;10.40;;;-1.40;99.90;;;;;;4961287;28;20058;-84
2022/03/07 01:51:56;;;;;;;18.38;11.07;;;-1.00;99.90;;;;;;4976215;28;20073;-84
2022/03/07 01:54:23;;;;;;;14.35;9.40;;;-1.40;99.90;;;;;;4960751;28;20050;-84
2022/03/07 01:56:50;;;;;;;13.73;9.18;;;-1.40;99.90;;;;;;5009312;28;20046;-84
2022/03/07 01:59:21;;;;;;;13.82;8.75;;;-1.10;99.90;;;;;;4976951;28;20049;-84
2022/03/07 02:01:48;;;;;;;14.57;8.60;;;-1.30;99.90;;;;;;4992957;28;20112;-84
2022/03/07 02:04:15;;;;;;;11.63;8.07;;;-1.20;99.90;;;;;;4993149;28;20038;-84
2022/03/07 02:06:41;;;;;;;11.75;8.07;;;-0.80;99.90;;;;;;4959923;28;20042;-84
2022/03/07 02:09:08;;;;;;;12.20;8.15;;;-1.20;99.90;;;;;;4977008;28;20046;-84
2022/03/07 02:11:35;;;;;;;13.27;8.82;;;-1.20;99.90;;;;;;5009414;28;20049;-84
2022/03/07 02:14:18;;;;;;;14.57;9.80;;;-0.80;99.90;;;;;;4961126;28;20038;-84
2022/03/07 02:16:45;;;;;;;14.23;9.80;;;-1.20;99.90;;;;;;4992672;28;20042;-84
2022/03/07 02:19:12;;;;;;;18.75;11.05;;;-1.10;99.90;;;;;;4976769;28;20053;-84
2022/03/07 02:21:47;;;;;;;15.75;9.60;;;-1.40;99.90;;;;;;4975865;28;20478;-84
2022/03/07 02:24:14;;;;;;;13.60;9.25;;;-1.50;99.90;;;;;;4992816;28;20097;-84
2022/03/07 02:26:40;;;;;;;12.27;8.27;;;-1.50;99.90;;;;;;5009078;28;20125;-84
2022/03/07 02:29:08;;;;;;;13.77;8.70;;;-1.40;99.90;;;;;;4992747;28;20069;-84
2022/03/07 02:31:34;;;;;;;11.70;7.88;;;-0.80;99.90;;;;;;4976431;28;20097;-84
2022/03/07 02:34:01;;;;;;;12.40;8.20;;;-1.30;99.90;;;;;;4963870;28;20042;-84
2022/03/07 02:36:27;;;;;;;12.38;7.70;;;-1.20;99.90;;;;;;4998387;28;20042;-84
2022/03/07 02:38:52;;;;;;;17.08;10.20;;;-1.30;99.90;;;;;;5015561;28;20093;-84
2022/03/07 02:41:19;;;;;;;13.07;9.50;;;-0.70;99.90;;;;;;4950649;28;20034;-84
2022/03/07 02:43:45;;;;;;;12.68;8.10;;;-1.30;99.90;;;;;;4998976;28;20042;-84
2022/03/07 02:46:10;;;;;;;14.07;9.25;;;-1.30;99.90;;;;;;4982784;28;20356;-84
2022/03/07 02:48:36;;;;;;;13.20;9.30;;;-1.30;99.90;;;;;;4998862;28;20053;-84
2022/03/07 02:51:02;;;;;;;14.18;9.38;;;-1.30;99.90;;;;;;4950716;28;20034;-84
2022/03/07 02:53:28;;;;;;;14.38;9.55;;;-1.40;99.90;;;;;;4966028;28;20038;-84
2022/03/07 02:55:54;;;;;;;14.52;9.45;;;-1.50;99.90;;;;;;5015243;28;20133;-84
2022/03/07 02:58:20;;;;;;;12.82;8.50;;;-1.50;99.90;;;;;;4950726;28;20053;-84
2022/03/07 03:00:47;;;;;;;14.07;8.25;;;-1.00;99.90;;;;;;4999123;28;20042;-84
2022/03/07 03:03:22;;;;;;;13.60;8.77;;;-1.30;99.90;;;;;;5015840;28;20045;-83
2022/03/07 03:05:47;;;;;;;13.05;8.63;;;-1.50;99.90;;;;;;4999147;28;20129;-83
2022/03/07 03:08:13;;;;;;;15.35;9.57;;;-1.50;99.90;;;;;;4981836;28;20133;-83
2022/03/07 03:10:39;;;;;;;13.70;9.45;;;-1.40;99.90;;;;;;4998834;28;20409;-83
2022/03/07 03:13:05;;;;;;;15.23;9.75;;;-1.40;99.90;;;;;;4966900;28;20493;-83
2022/03/07 03:15:30;;;;;;;15.77;10.25;;;-1.50;99.90;;;;;;4998973;28;20132;-83
2022/03/07 03:17:56;;;;;;;15.50;9.70;;;-1.50;99.90;;;;;;4982540;28;20092;-83
2022/03/07 03:20:22;;;;;;;14.32;9.20;;;-1.60;99.90;;;;;;4950682;28;20038;-83
2022/03/07 03:22:48;;;;;;;13.68;9.13;;;-1.60;99.90;;;;;;4949715;28;20049;-83
2022/03/07 03:25:16;;;;;;;13.45;8.70;;;-0.90;99.90;;;;;;4956097;28;20083;-83
2022/03/07 03:27:43;;;;;;;13.43;8.35;;;-1.50;99.90;;;;;;4982486;28;20043;-83
2022/03/07 03:30:11;;;;;;;12.82;8.85;;;-1.50;99.90;;;;;;4982551;28;20073;-83
2022/03/07 03:32:37;;;;;;;13.50;9.07;;;-1.50;99.90;;;;;;4982882;28;20038;-83
2022/03/07 03:35:03;;;;;;;13.85;8.75;;;-0.60;99.90;;;;;;4982682;28;20102;-83
2022/03/07 03:37:29;;;;;;;16.05;10.00;;;-1.40;99.90;;;;;;4981443;28;20050;-83
2022/03/07 03:39:55;;;;;;;14.02;9.30;;;-1.50;99.90;;;;;;4998954;28;20057;-83
2022/03/07 03:42:24;;;;;;;10.65;7.88;;;-1.30;99.90;;;;;;4998629;28;20104;-83
2022/03/07 03:44:50;;;;;;;14.93;8.45;;;-1.40;99.90;;;;;;4981212;28;20046;-83
2022/03/07 03:47:16;;;;;;;12.45;8.02;;;-1.40;99.90;;;;;;4979507;28;20375;-83
2022/03/07 03:49:42;;;;;;;15.27;9.60;;;-1.40;99.90;;;;;;4996016;28;20049;-83
2022/03/07 03:52:08;;;;;;;14.48;10.00;;;-1.40;99.90;;;;;;4978158;28;20042;-83
2022/03/07 03:54:34;;;;;;;15.20;9.50;;;-1.40;99.90;;;;;;4995231;28;20146;-83
2022/03/07 03:57:00;;;;;;;15.35;9.75;;;-1.40;99.90;;;;;;4992114;28;20049;-83
2022/03/07 03:59:26;;;;;;;14.15;10.02;;;-1.40;99.90;;;;;;4998718;28;20038;-83
2022/03/07 04:01:51;;;;;;;13.02;9.18;;;-1.40;99.90;;;;;;4982127;28;20073;-83
2022/03/07 04:04:17;;;;;;;13.07;8.98;;;-1.40;99.90;;;;;;4982403;28;20048;-83
2022/03/07 04:06:43;;;;;;;13.98;8.57;;;-1.40;99.90;;;;;;4981215;28;20050;-83
2022/03/07 04:09:20;;;;;;;14.57;9.50;;;-0.90;99.90;;;;;;4982490;28;20485;-83
2022/03/07 04:11:46;;;;;;;15.23;10.73;;;-1.40;99.90;;;;;;4998221;28;20042;-83
2022/03/07 04:14:12;;;;;;;15.40;10.65;;;-1.40;99.90;;;;;;4998704;28;20041;-83
2022/03/07 04:16:39;;;;;;;14.82;10.40;;;-1.50;99.90;;;;;;5014835;28;20041;-83
2022/03/07 04:19:10;;;;;;;17.40;10.27;;;-1.50;99.90;;;;;;4998451;28;20554;-83
2022/03/07 04:21:39;;;;;;;16.00;10.90;;;-1.20;99.90;;;;;;4997523;28;20050;-83
2022/03/07 04:24:06;;;;;;;17.17;10.65;;;-1.80;99.90;;;;;;4998136;28;20042;-83
2022/03/07 04:26:31;;;;;;;19.50;11.75;;;-1.80;99.90;;;;;;4965708;28;20050;-83
2022/03/07 04:28:57;;;;;;;19.33;12.38;;;-1.00;99.90;;;;;;4981869;28;20049;-83
2022/03/07 04:31:23;;;;;;;15.82;10.90;;;-1.90;99.90;;;;;;5014277;28;20045;-83
2022/03/07 04:33:49;;;;;;;17.40;10.88;;;-1.90;99.90;;;;;;4965985;28;20434;-83
2022/03/07 04:36:15;;;;;;;15.40;10.85;;;-0.80;99.90;;;;;;5013788;28;20084;-83
2022/03/07 04:38:41;;;;;;;17.33;11.82;;;-1.90;99.90;;;;;;4982076;28;20038;-83
2022/03/07 04:41:06;;;;;;;20.27;12.23;;;-1.90;99.90;;;;;;4981527;28;20044;-83
2022/03/07 04:43:33;;;;;;;17.73;11.00;;;-1.20;99.90;;;;;;4981785;28;20100;-83
2022/03/07 04:45:58;;;;;;;15.10;10.13;;;-1.80;99.90;;;;;;4997777;28;20555;-83
2022/03/07 04:48:25;;;;;;;15.60;9.75;;;-1.80;99.90;;;;;;4981331;28;20037;-83
2022/03/07 04:50:51;;;;;;;12.75;8.80;;;-1.80;99.90;;;;;;4997554;28;20034;-83
2022/03/07 04:53:17;;;;;;;14.32;10.00;;;-1.80;99.90;;;;;;4980483;28;20041;-83
2022/03/07 04:55:43;;;;;;;14.73;10.23;;;-0.90;99.90;;;;;;4981315;28;20141;-83
2022/03/07 04:58:08;;;;;;;13.95;9.55;;;-1.70;99.90;;;;;;4997334;28;20180;-83
2022/03/07 05:00:34;;;;;;;17.42;11.43;;;-1.20;99.90;;;;;;4997396;28;20042;-83
2022/03/07 05:03:00;;;;;;;17.55;11.05;;;-1.70;99.90;;;;;;4964931;28;20045;-83
2022/03/07 05:05:26;;;;;;;16.98;11.68;;;-1.70;99.90;;;;;;4981085;28;20073;-84
2022/03/07 05:07:53;;;;;;;17.45;11.48;;;-1.70;99.90;;;;;;4996523;28;20505;-84
2022/03/07 05:10:19;;;;;;;16.58;11.82;;;-1.70;99.90;;;;;;4997393;28;20042;-84
2022/03/07 05:12:46;;;;;;;15.48;10.35;;;-1.70;99.90;;;;;;4997415;28;20042;-84
2022/03/07 05:15:12;;;;;;;16.15;12.00;;;-0.90;99.90;;;;;;4997376;28;20045;-84
2022/03/07 05:17:48;;;;;;;15.80;11.70;;;-1.70;99.90;;;;;;5013509;28;20044;-84
2022/03/07 05:20:15;;;;;;;18.77;12.07;;;-0.50;99.90;;;;;;4997254;28;20137;-84
2022/03/07 05:22:42;;;;;;;20.02;13.35;;;-1.60;99.90;;;;;;4996142;28;20046;-84
2022/03/07 05:25:09;;;;;;;24.63;16.05;;;-1.60;99.90;;;;;;4988462;28;20050;-84
2022/03/07 05:27:35;;;;;;;21.83;15.77;;;-0.80;99.90;;;;;;4993388;28;20034;-84
2022/03/07 05:30:02;;;;;;;22.23;15.30;;;-1.50;99.90;;;;;;4961136;28;20069;-83
2022/03/07 05:32:28;;;;;;;20.50;13.50;;;-1.50;99.90;;;;;;4977067;28;20145;-83
2022/03/07 05:34:54;;;;;;;19.83;13.82;;;-1.40;99.90;;;;;;4945181;28;20039;-83
2022/03/07 05:37:20;;;;;;;21.10;13.38;;;-1.40;99.90;;;;;;4944416;28;20121;-83
2022/03/07 05:39:45;;;;;;;24.98;15.73;;;-0.90;99.90;;;;;;4961131;28;20511;-83
2022/03/07 05:42:11;;;;;;;20.65;13.88;;;-1.30;99.90;;;;;;4944916;28;20034;-83
2022/03/07 05:44:37;;;;;;;21.85;14.43;;;-1.30;99.90;;;;;;4977294;28;20125;-83
2022/03/07 05:47:03;;;;;;;20.60;13.20;;;-0.70;99.90;;;;;;4960859;28;20045;-83
2022/03/07 05:49:28;;;;;;;19.15;13.38;;;-1.30;99.90;;;;;;4960977;28;20038;-83
2022/03/07 05:51:54;;;;;;;22.02;13.68;;;-1.30;99.90;;;;;;4992149;28;20409;-83
2022/03/07 05:54:20;;;;;;;19.23;13.52;;;-1.30;99.90;;;;;;4945007;28;20054;-83
2022/03/07 05:56:46;;;;;;;19.88;13.05;;;-1.30;99.90;;;;;;4960731;28;20125;-83
2022/03/07 05:59:11;;;;;;;20.23;14.32;;;-0.10;99.90;;;;;;4944981;28;20042;-83
2022/03/07 06:01:37;;;;;;;19.90;13.93;;;-1.20;99.90;;;;;;4976528;28;20057;-83
2022/03/07 06:04:03;;;;;;;17.77;12.02;;;-1.10;99.90;;;;;;4976864;28;20050;-83
2022/03/07 06:06:29;;;;;;;16.70;11.80;;;-1.20;99.90;;;;;;4975677;28;20038;-83
2022/03/07 06:08:54;;;;;;;17.33;12.80;;;-1.20;99.90;;;;;;4982399;28;20481;-83
2022/03/07 06:11:20;;;;;;;19.80;12.77;;;-0.60;99.90;;;;;;5008600;28;20046;-83
2022/03/07 06:13:46;;;;;;;20.48;13.45;;;-1.20;99.90;;;;;;4992942;28;20037;-83
2022/03/07 06:16:12;;;;;;;17.85;12.02;;;-0.50;99.90;;;;;;4992735;28;20560;-83
2022/03/07 06:18:38;;;;;;;18.80;13.00;;;-1.10;99.90;;;;;;4978459;28;20038;-83
2022/03/07 06:21:05;;;;;;;18.50;12.80;;;-1.10;99.90;;;;;;4995604;28;20402;-83
2022/03/07 06:23:31;;;;;;;22.00;15.55;;;-1.10;99.90;;;;;;4989811;28;20512;-83
2022/03/07 06:25:57;;;;;;;20.17;14.00;;;-1.10;99.90;;;;;;4995914;28;20076;-83
2022/03/07 06:28:23;;;;;;;21.67;14.23;;;-1.10;99.90;;;;;;4996269;28;20172;-83
2022/03/07 06:30:49;;;;;;;18.63;13.80;;;-1.10;99.90;;;;;;4980148;28;20034;-83
2022/03/07 06:33:16;;;;;;;23.38;14.90;;;-1.10;99.90;;;;;;4978543;28;20038;-83
2022/03/07 06:35:42;;;;;;;22.30;15.35;;;-1.10;99.90;;;;;;4972172;28;20042;-84
2022/03/07 06:38:08;;;;;;;23.83;15.48;;;-1.10;99.90;;;;;;4978100;28;20126;-84
2022/03/07 06:40:34;;;;;;;21.00;15.57;;;-1.10;99.90;;;;;;4976297;28;20134;-84
2022/03/07 06:43:03;;;;;;;23.88;15.77;;;-1.10;99.90;;;;;;4976537;28;20134;-84
2022/03/07 06:45:30;;;;;;;22.50;13.95;;;-0.20;99.90;;;;;;5012327;28;20132;-84
2022/03/07 06:47:57;;;;;;;21.40;13.93;;;-1.00;99.90;;;;;;4996434;28;20493;-84
2022/03/07 06:50:22;;;;;;;43.10;30.48;;;-0.90;99.90;;;;;;4996015;28;20121;-84
2022/03/07 06:52:48;;;;;;;79.85;51.83;;;-0.50;99.90;;;;;;4978667;28;20121;-84
2022/03/07 06:55:15;;;;;;;26.38;18.30;;;0.00;99.90;;;;;;4995287;28;20093;-84
2022/03/07 06:57:42;;;;;;;22.95;16.23;;;-0.20;99.90;;;;;;5006948;28;20038;-84
2022/03/07 07:00:11;;;;;;;21.15;16.33;;;-0.10;99.90;;;;;;4997997;28;20070;-84
2022/03/07 07:02:37;;;;;;;25.13;16.15;;;0.20;99.90;;;;;;5002777;28;20042;-84
2022/03/07 07:05:04;;;;;;;25.90;17.45;;;0.40;99.90;;;;;;4992309;28;20077;-84
2022/03/07 07:07:31;;;;;;;22.20;16.92;;;0.60;99.90;;;;;;4995425;28;20045;-84
2022/03/07 07:09:57;;;;;;;22.67;16.80;;;0.80;99.90;;;;;;4976525;28;20060;-84
2022/03/07 07:12:23;;;;;;;22.88;16.77;;;1.70;99.90;;;;;;5001991;28;20485;-84
2022/03/07 07:14:49;;;;;;;21.98;16.65;;;0.90;99.90;;;;;;4998087;28;20065;-84
2022/03/07 07:17:15;;;;;;;21.48;16.40;;;0.90;99.90;;;;;;4984814;28;20038;-84
2022/03/07 07:19:41;;;;;;;20.13;16.23;;;0.80;99.90;;;;;;4992029;28;20050;-84
2022/03/07 07:22:07;;;;;;;24.35;17.15;;;1.30;99.90;;;;;;4993859;28;20049;-84
2022/03/07 07:24:33;;;;;;;21.27;16.60;;;1.20;99.90;;;;;;4997977;28;20398;-84
2022/03/07 07:26:59;;;;;;;23.75;17.02;;;1.10;99.90;;;;;;4994275;28;20049;-84
2022/03/07 07:29:25;;;;;;;26.45;18.38;;;1.20;99.90;;;;;;4980397;28;20034;-84
2022/03/07 07:31:54;;;;;;;24.13;16.75;;;1.40;99.90;;;;;;4995378;28;20042;-84
2022/03/07 07:34:21;;;;;;;26.25;22.08;;;1.50;99.90;;;;;;4980201;28;20038;-84
2022/03/07 07:36:47;;;;;;;25.02;19.00;;;1.50;99.90;;;;;;4995099;28;20112;-84
2022/03/07 07:39:13;;;;;;;22.80;17.40;;;1.60;99.90;;;;;;5011818;28;20096;-83
2022/03/07 07:41:39;;;;;;;21.48;16.65;;;2.60;99.90;;;;;;4996908;28;20041;-83
2022/03/07 07:44:05;;;;;;;22.10;16.98;;;1.50;99.90;;;;;;4996185;28;20456;-83
2022/03/07 07:46:30;;;;;;;23.42;16.98;;;2.10;99.90;;;;;;4996024;28;20069;-83
2022/03/07 07:48:56;;;;;;;23.65;18.63;;;1.60;99.90;;;;;;4992776;28;20044;-84
2022/03/07 07:51:22;;;;;;;24.23;16.90;;;1.90;99.90;;;;;;4993510;28;20096;-84
2022/03/07 07:53:48;;;;;;;20.27;16.42;;;2.40;99.90;;;;;;5008944;28;20116;-84
2022/03/07 07:56:14;;;;;;;21.02;16.50;;;1.90;99.90;;;;;;4997871;28;20129;-84
2022/03/07 07:58:40;;;;;;;21.60;15.32;;;2.10;99.90;;;;;;5013249;28;20467;-84
2022/03/07 08:01:06;;;;;;;20.92;14.45;;;3.30;99.90;;;;;;5002068;28;20125;-84
2022/03/07 08:03:32;;;;;;;19.73;14.77;;;2.70;99.90;;;;;;5011002;28;20477;-84
2022/03/07 08:05:58;;;;;;;21.52;15.38;;;3.30;99.90;;;;;;4989243;28;20042;-84
2022/03/07 08:08:24;;;;;;;18.45;14.35;;;2.80;99.90;;;;;;5011670;28;20504;-84
2022/03/07 08:10:49;;;;;;;19.08;13.95;;;2.70;99.90;;;;;;4980057;28;20064;-84
2022/03/07 08:13:16;;;;;;;20.77;13.68;;;2.70;99.90;;;;;;4972398;28;20034;-84
2022/03/07 08:15:42;;;;;;;19.88;14.30;;;2.90;99.90;;;;;;4972918;28;20034;-84
2022/03/07 08:18:08;;;;;;;19.27;14.95;;;2.90;99.90;;;;;;5010373;28;20041;-84
2022/03/07 08:20:35;;;;;;;18.50;13.95;;;3.20;99.90;;;;;;4996462;28;20048;-84
2022/03/07 08:23:00;;;;;;;17.70;14.45;;;3.40;99.90;;;;;;5009921;28;20034;-84
2022/03/07 08:25:26;;;;;;;19.20;14.70;;;3.50;99.90;;;;;;4991933;28;20044;-84
2022/03/07 08:27:52;;;;;;;20.17;14.90;;;3.70;99.90;;;;;;4995639;28;20038;-84
2022/03/07 08:30:23;;;;;;;21.63;14.77;;;4.40;99.90;;;;;;4978350;28;20037;-84
2022/03/07 08:32:50;;;;;;;18.75;14.10;;;4.20;99.90;;;;;;5006733;28;20042;-84
2022/03/07 08:35:16;;;;;;;18.40;13.15;;;4.30;99.90;;;;;;5012443;28;20140;-84
2022/03/07 08:37:45;;;;;;;17.33;12.70;;;4.30;99.90;;;;;;5019083;28;20035;-84
2022/03/07 08:40:13;;;;;;;17.23;13.13;;;4.40;99.90;;;;;;4990257;28;20124;-84
2022/03/07 08:42:39;;;;;;;17.02;12.65;;;4.40;99.90;;;;;;4985439;28;20516;-83
2022/03/07 08:45:06;;;;;;;17.33;13.13;;;4.40;99.90;;;;;;4996066;28;20033;-83
2022/03/07 08:47:33;;;;;;;16.60;12.00;;;4.50;99.90;;;;;;4996311;28;20073;-84
2022/03/07 08:49:59;;;;;;;17.30;11.88;;;4.60;99.90;;;;;;4995761;28;20042;-84
2022/03/07 08:52:24;;;;;;;16.15;11.20;;;4.60;99.90;;;;;;4979011;28;20040;-84
2022/03/07 08:54:50;;;;;;;14.15;9.35;;;4.70;99.90;;;;;;5009955;28;20053;-84
2022/03/07 08:57:16;;;;;;;13.75;9.30;;;4.90;99.90;;;;;;4995517;28;20501;-84
2022/03/07 08:59:42;;;;;;;15.07;9.48;;;5.00;99.90;;;;;;4979903;28;20561;-84
2022/03/07 09:02:12;;;;;;;13.93;9.88;;;5.30;99.90;;;;;;4980072;28;20038;-84
2022/03/07 09:04:40;;;;;;;13.80;8.18;;;5.70;99.90;;;;;;4964730;28;20409;-84
2022/03/07 09:07:06;;;;;;;14.98;8.52;;;5.80;99.90;;;;;;4975271;28;20581;-84
2022/03/07 09:09:31;;;;;;;13.85;8.00;;;6.10;99.90;;;;;;4995887;28;20046;-84
2022/03/07 09:11:57;;;;;;;10.48;4.85;;;6.20;99.90;;;;;;4979350;28;20137;-84
2022/03/07 09:14:23;;;;;;;10.60;5.28;;;6.60;99.90;;;;;;4979908;28;20048;-84
2022/03/07 09:16:49;;;;;;;12.55;6.00;;;7.20;99.90;;;;;;4979949;28;20125;-84
2022/03/07 09:19:14;;;;;;;9.38;5.50;;;7.30;99.90;;;;;;4993590;28;20046;-84
2022/03/07 09:21:40;;;;;;;10.25;4.32;;;7.40;99.90;;;;;;4977462;28;20107;-84
2022/03/07 09:24:06;;;;;;;9.65;3.80;;;7.60;99.90;;;;;;4973242;28;20038;-84
2022/03/07 09:26:32;;;;;;;8.05;2.90;;;7.90;99.90;;;;;;4994843;28;20485;-84
2022/03/07 09:28:58;;;;;;;6.60;2.20;;;7.50;99.90;;;;;;4977459;28;20037;-84
2022/03/07 09:31:24;;;;;;;8.65;3.03;;;7.40;99.90;;;;;;5003864;28;20044;-84
2022/03/07 09:33:50;;;;;;;7.50;2.70;;;7.50;99.90;;;;;;4994112;28;20030;-84
2022/03/07 09:36:16;;;;;;;8.90;3.58;;;6.80;99.90;;;;;;4978984;28;20094;-84
2022/03/07 09:38:43;;;;;;;8.52;4.38;;;7.30;99.90;;;;;;5011371;28;20519;-84
2022/03/07 09:41:09;;;;;;;11.40;5.07;;;7.60;99.90;;;;;;4979685;28;20049;-84
2022/03/07 09:43:36;;;;;;;9.35;3.42;;;7.70;99.90;;;;;;4980929;28;20038;-84
2022/03/07 09:46:03;;;;;;;9.18;4.40;;;7.60;99.90;;;;;;5013068;28;20038;-84
2022/03/07 09:48:29;;;;;;;10.18;4.43;;;7.40;99.90;;;;;;5011024;28;20045;-84
2022/03/07 09:50:56;;;;;;;8.73;3.90;;;6.90;99.90;;;;;;4995406;28;20512;-84
2022/03/07 09:53:22;;;;;;;8.85;4.10;;;6.90;99.90;;;;;;4994353;28;20041;-84
2022/03/07 09:55:48;;;;;;;7.97;4.10;;;7.10;99.90;;;;;;4994625;28;20143;-84
2022/03/07 09:58:14;;;;;;;8.88;4.18;;;7.30;99.90;;;;;;4994424;28;20470;-84
2022/03/07 10:00:41;;;;;;;8.90;3.55;;;7.50;99.90;;;;;;5010154;28;20069;-84
2022/03/07 10:03:09;;;;;;;11.13;4.00;;;7.30;99.90;;;;;;4976840;28;20038;-84
2022/03/07 10:05:42;;;;;;;10.25;4.60;;;7.40;99.90;;;;;;5011315;28;20049;-84
2022/03/07 10:08:08;;;;;;;8.70;4.90;;;7.60;99.90;;;;;;5008976;28;20074;-85
2022/03/07 10:10:40;;;;;;;9.57;4.45;;;7.30;99.90;;;;;;5013855;28;20120;-85
2022/03/07 10:13:14;;;;;;;9.90;4.30;;;7.70;99.90;;;;;;5005770;28;20030;-85
2022/03/07 10:15:42;;;;;;;9.93;4.65;;;7.90;99.90;;;;;;4976390;28;20038;-85
2022/03/07 10:18:16;;;;;;;9.98;4.88;;;8.30;99.90;;;;;;4991648;28;20101;-85
2022/03/07 10:20:59;;;;;;;10.02;4.53;;;8.30;99.90;;;;;;4993105;28;20042;-85
2022/03/07 10:23:27;;;;;;;9.63;4.75;;;8.40;99.90;;;;;;4991833;28;20109;-85
2022/03/07 10:26:05;;;;;;;11.23;4.10;;;8.30;99.90;;;;;;4976807;28;20045;-85
2022/03/07 10:28:38;;;;;;;10.15;4.35;;;8.50;99.90;;;;;;4993008;28;20050;-85
2022/03/07 10:31:17;;;;;;;10.68;4.07;;;8.80;99.90;;;;;;4976187;28;20052;-85
2022/03/07 10:33:44;;;;;;;9.98;4.15;;;8.90;98.00;;;;;;4976572;28;20397;-85
2022/03/07 10:36:10;;;;;;;10.93;4.82;;;8.80;98.20;;;;;;4992226;28;20068;-85
2022/03/07 10:38:36;;;;;;;10.25;5.07;;;8.60;97.20;;;;;;4991548;28;20068;-85
2022/03/07 10:41:02;;;;;;;9.90;5.45;;;8.40;97.30;;;;;;4960081;28;20476;-85
2022/03/07 10:43:28;;;;;;;9.90;5.53;;;8.50;98.60;;;;;;4976609;28;20498;-85
2022/03/07 10:45:57;;;;;;;9.40;5.43;;;8.50;98.80;;;;;;4992375;28;20038;-85
2022/03/07 10:48:26;;;;;;;10.30;5.50;;;8.40;97.30;;;;;;4992527;28;20034;-85
2022/03/07 10:50:54;;;;;;;9.35;5.55;;;8.40;98.30;;;;;;4992490;28;20049;-85
2022/03/07 10:53:20;;;;;;;8.75;5.25;;;8.60;99.10;;;;;;5007925;28;20121;-85
2022/03/07 10:55:57;;;;;;;8.38;4.95;;;8.60;96.30;;;;;;4978751;28;20524;-85
2022/03/07 10:58:23;;;;;;;9.30;5.50;;;8.60;95.00;;;;;;4964807;28;20046;-85
2022/03/07 11:00:57;;;;;;;9.77;5.93;;;8.50;93.80;;;;;;4996253;28;20042;-85
2022/03/07 11:03:26;;;;;;;10.10;5.75;;;8.10;95.60;;;;;;4995938;28;20073;-85
2022/03/07 11:05:52;;;;;;;11.50;5.97;;;8.10;97.50;;;;;;5012583;28;20490;-85
2022/03/07 11:08:20;;;;;;;9.15;5.10;;;8.40;98.50;;;;;;4995078;28;20046;-85
2022/03/07 11:10:48;;;;;;;10.40;5.88;;;8.60;95.40;;;;;;4996002;28;20042;-85
2022/03/07 11:13:16;;;;;;;11.02;4.85;;;8.80;96.90;;;;;;4996264;28;20523;-85
2022/03/07 11:15:43;;;;;;;9.82;5.22;;;8.90;95.20;;;;;;5012571;28;20077;-85
2022/03/07 11:18:11;;;;;;;10.90;5.13;;;8.80;95.30;;;;;;4979876;28;20133;-85
2022/03/07 11:20:41;;;;;;;10.60;5.30;;;9.10;94.00;;;;;;5012529;28;20493;-85
2022/03/07 11:23:07;;;;;;;10.35;4.22;;;9.10;92.00;;;;;;5011337;28;20081;-85
2022/03/07 11:25:34;;;;;;;8.27;4.50;;;9.00;91.70;;;;;;4979770;28;20038;-85
2022/03/07 11:28:01;;;;;;;7.55;4.60;;;8.90;91.90;;;;;;4979451;28;20038;-85
2022/03/07 11:30:36;;;;;;;8.20;4.35;;;8.80;91.10;;;;;;4995825;28;20043;-85
2022/03/07 11:33:13;;;;;;;7.95;4.20;;;8.50;91.70;;;;;;5011835;28;20046;-85
2022/03/07 11:35:48;;;;;;;8.60;4.68;;;8.30;92.40;;;;;;5012031;28;20114;-85
2022/03/07 11:38:15;;;;;;;9.63;4.85;;;8.30;92.90;;;;;;4994642;28;20053;-85
2022/03/07 11:41:13;;;;;;;8.00;4.40;;;8.40;92.40;;;;;;4995442;28;20072;-85
2022/03/07 11:43:54;;;;;;;8.57;4.28;;;8.20;91.70;;;;;;4952209;28;20092;-85
2022/03/07 11:46:27;;;;;;;7.97;4.07;;;8.20;93.80;;;;;;4995144;28;20047;-85
2022/03/07 11:48:54;;;;;;;8.02;4.40;;;8.70;94.10;;;;;;4995411;28;20068;-85
2022/03/07 11:51:25;;;;;;;8.25;4.30;;;9.00;90.50;;;;;;4994706;28;20398;-85
2022/03/07 11:53:53;;;;;;;7.55;4.20;;;8.90;90.60;;;;;;5011491;28;20034;-85
2022/03/07 11:56:26;;;;;;;7.97;4.10;;;8.50;90.10;;;;;;4994975;28;20042;-85
2022/03/07 11:58:54;;;;;;;6.82;3.58;;;8.70;86.00;;;;;;4995359;28;20047;-85
2022/03/07 12:01:22;;;;;;;7.88;4.20;;;8.80;89.30;;;;;;4995249;28;20493;-85
2022/03/07 12:03:48;;;;;;;7.75;4.03;;;8.70;84.80;;;;;;4979362;28;20053;-85
2022/03/07 12:06:16;;;;;;;7.20;4.18;;;8.50;85.50;;;;;;4961342;28;20532;-85
2022/03/07 12:08:53;;;;;;;8.13;3.50;;;8.30;89.90;;;;;;5011525;28;20473;-85
2022/03/07 12:11:31;;;;;;;6.80;3.70;;;8.40;86.60;;;;;;4994846;28;20048;-85
2022/03/07 12:14:04;;;;;;;7.85;3.55;;;8.40;84.30;;;;;;4995006;28;20176;-85
2022/03/07 12:16:33;;;;;;;6.50;3.15;;;8.20;82.70;;;;;;4978744;28;20053;-84
2022/03/07 12:19:14;;;;;;;6.90;3.53;;;8.10;80.90;;;;;;4978963;28;20046;-84
2022/03/07 12:21:44;;;;;;;7.32;3.30;;;8.30;85.30;;;;;;4977870;28;20101;-84
2022/03/07 12:24:13;;;;;;;8.23;3.17;;;8.50;85.00;;;;;;4978900;28;20049;-84
2022/03/07 12:26:57;;;;;;;6.47;3.20;;;8.60;80.40;;;;;;4978338;28;20045;-84
2022/03/07 12:29:25;;;;;;;7.30;3.50;;;8.60;75.30;;;;;;4978789;28;20490;-84
2022/03/07 12:31:55;;;;;;;7.18;3.50;;;8.40;76.30;;;;;;4978527;28;20390;-84
2022/03/07 12:34:30;;;;;;;6.75;3.60;;;8.50;77.50;;;;;;4994867;28;20035;-84
2022/03/07 12:37:08;;;;;;;6.35;3.30;;;8.50;78.20;;;;;;4977648;28;20053;-84
2022/03/07 12:39:58;;;;;;;5.82;2.70;;;8.70;79.30;;;;;;4994643;28;20081;-84
2022/03/07 12:42:27;;;;;;;6.30;3.33;;;8.70;68.70;;;;;;4978159;28;20043;-84